Thurston, Nebraska
Current Conditions -  °F | °C
As of 12:15 PM on Friday 28 Nov 2014 (Local Time) from KLCG Reporting Station
Clear Clear  
Wind Chill: 38°   Ceiling: Unl
Heat Index: 44°   Visibility: 10mi
Dew Point: 28°   Wind: 10mph
Humidity: 55%   Direction: 160°SSE
Pressure: 29.72"   Gusts: NA
Location:  42.18°N, 96.7°W
Report Text: KLCG 281815Z AUTO 16009KT 10SM CLR 06/M02 A2972 RMK AO2 T00641020
Loading
Personal Weather Stations






























Interactive Weather Map New forecast layout! Learn more

10-Day Weather Forecast

Advertisements
Track Severe Weather on mobile